createdAt,value
2018-08-31T00:00:00.136Z,13.9
2018-08-31T00:05:00.246Z,13.9
2018-08-31T00:10:00.141Z,13.8
2018-08-31T00:14:59.918Z,13.9
2018-08-31T00:20:00.535Z,13.8
2018-08-31T00:25:00.065Z,13.8
2018-08-31T00:30:00.180Z,13.8
2018-08-31T00:35:00.565Z,13.7
2018-08-31T00:40:02.004Z,13.5
2018-08-31T00:45:00.546Z,13.6
2018-08-31T00:49:59.936Z,13.6
2018-08-31T00:55:00.119Z,13.6
2018-08-31T01:00:00.244Z,13.5
2018-08-31T01:05:00.580Z,13.5
2018-08-31T01:10:01.654Z,13.5
2018-08-31T01:14:59.767Z,13.5
2018-08-31T01:19:59.932Z,13.3
2018-08-31T01:25:00.989Z,13.4
2018-08-31T01:30:01.375Z,13.3
2018-08-31T01:34:59.971Z,13.3
2018-08-31T01:40:01.354Z,13.2
2018-08-31T01:45:00.821Z,13.1
2018-08-31T01:50:17.828Z,13
2018-08-31T01:55:01.485Z,13
2018-08-31T02:00:00.605Z,12.9
2018-08-31T02:05:00.063Z,13.1
2018-08-31T02:10:00.233Z,13
2018-08-31T02:15:00.323Z,13
2018-08-31T02:19:59.915Z,13
2018-08-31T02:24:59.732Z,13
2018-08-31T02:29:59.694Z,13
2018-08-31T02:34:59.672Z,12.8
2018-08-31T02:39:59.573Z,12.9
2018-08-31T02:44:59.636Z,12.9
2018-08-31T02:50:00.750Z,12.9
2018-08-31T02:54:59.590Z,13
2018-08-31T02:59:59.610Z,12.9
2018-08-31T03:04:59.805Z,13
2018-08-31T03:09:59.723Z,12.9
2018-08-31T03:14:59.929Z,12.9
2018-08-31T03:19:59.640Z,12.9
2018-08-31T03:24:59.612Z,12.8
2018-08-31T03:29:59.854Z,12.7
2018-08-31T03:34:59.586Z,12.8
2018-08-31T03:39:59.594Z,12.8
2018-08-31T03:45:00.099Z,12.8
2018-08-31T03:49:59.657Z,12.8
2018-08-31T03:54:59.700Z,12.7
2018-08-31T03:59:59.516Z,12.7
2018-08-31T04:04:59.465Z,12.7
2018-08-31T04:09:59.392Z,12.6
2018-08-31T04:14:59.908Z,12.6
2018-08-31T04:19:59.395Z,12.6
2018-08-31T04:24:59.442Z,12.7
2018-08-31T04:29:59.469Z,12.7
2018-08-31T04:34:59.748Z,12.7
2018-08-31T04:39:59.493Z,12.6
2018-08-31T04:44:59.730Z,12.6
2018-08-31T04:49:59.557Z,12.7
2018-08-31T04:54:59.589Z,12.7
2018-08-31T04:59:59.372Z,12.7
2018-08-31T05:04:59.546Z,12.6
2018-08-31T05:09:59.524Z,12.7
2018-08-31T05:14:59.782Z,12.8
2018-08-31T05:19:59.520Z,12.8
2018-08-31T05:24:59.678Z,12.9
2018-08-31T05:29:59.647Z,12.9
2018-08-31T05:34:59.418Z,13.1
2018-08-31T05:39:59.503Z,13.1
2018-08-31T05:44:59.542Z,13.2
2018-08-31T05:49:59.246Z,13.4
2018-08-31T05:54:59.621Z,13.5
2018-08-31T05:59:59.576Z,13.6
2018-08-31T06:04:59.310Z,13.7
2018-08-31T06:09:59.405Z,13.9
2018-08-31T06:15:00.160Z,13.8
2018-08-31T06:19:59.567Z,14
2018-08-31T06:24:59.523Z,14.1
2018-08-31T06:29:59.815Z,14.4
2018-08-31T06:34:59.283Z,14.4
2018-08-31T06:39:59.263Z,14.6
2018-08-31T06:44:59.340Z,14.8
2018-08-31T06:49:59.337Z,14.6
2018-08-31T06:54:59.245Z,14.6
2018-08-31T06:59:59.328Z,14.9
2018-08-31T07:04:59.258Z,15.1
2018-08-31T07:09:59.429Z,15.1
2018-08-31T07:14:59.304Z,15.2
2018-08-31T07:19:59.385Z,15.7
2018-08-31T07:24:59.433Z,15.5
2018-08-31T07:29:59.466Z,15.7
2018-08-31T07:34:59.431Z,15.4
2018-08-31T07:39:59.522Z,15.4
2018-08-31T07:44:59.316Z,15.9
2018-08-31T07:49:59.142Z,15.9
2018-08-31T07:54:59.323Z,16.3
2018-08-31T07:59:59.379Z,16.5
2018-08-31T08:04:59.315Z,16.5
2018-08-31T08:09:59.276Z,16.3
2018-08-31T08:14:59.451Z,16
2018-08-31T08:19:59.119Z,16.3
2018-08-31T08:24:59.087Z,16.8
2018-08-31T08:29:59.238Z,17.3
2018-08-31T08:34:59.323Z,18.4
2018-08-31T08:39:59.188Z,18.1
2018-08-31T08:44:59.240Z,18.4
2018-08-31T08:49:59.026Z,17.9
2018-08-31T08:54:59.123Z,18.3
2018-08-31T08:59:59.339Z,17.9
2018-08-31T09:04:59.353Z,17.8
2018-08-31T09:09:59.074Z,18.7
2018-08-31T09:14:58.962Z,17.9
2018-08-31T09:19:59.326Z,18.5
2018-08-31T09:24:59.294Z,18.2
2018-08-31T09:29:58.918Z,18.9
2018-08-31T09:34:59.036Z,18.8
2018-08-31T09:39:59.216Z,19.3
2018-08-31T09:44:59.306Z,19
2018-08-31T09:49:59.048Z,19
2018-08-31T09:54:58.904Z,18.7
2018-08-31T09:59:59.210Z,18.7
2018-08-31T10:04:58.904Z,19
2018-08-31T10:09:59.237Z,18.5
2018-08-31T10:14:59.223Z,18.6
2018-08-31T10:19:58.926Z,19
2018-08-31T10:24:59.018Z,18.8
2018-08-31T10:29:59.024Z,19.4
2018-08-31T10:34:59.229Z,19.4
2018-08-31T10:39:59.136Z,19.2
2018-08-31T10:44:58.933Z,19.2
2018-08-31T10:49:59.280Z,17.7
2018-08-31T10:54:59.275Z,17.8
2018-08-31T10:59:59.129Z,17.7
2018-08-31T11:04:58.810Z,17.9
2018-08-31T11:09:58.857Z,17.7
2018-08-31T11:14:59.035Z,17.6
2018-08-31T11:19:59.776Z,18.2
2018-08-31T11:24:58.813Z,18.3
2018-08-31T11:29:58.988Z,18.6
2018-08-31T11:34:59.098Z,18.5
2018-08-31T11:39:58.897Z,18
2018-08-31T11:44:59.000Z,18.9
2018-08-31T11:49:58.990Z,18.9
2018-08-31T11:54:58.933Z,19
2018-08-31T11:59:58.788Z,19
2018-08-31T12:04:59.081Z,18.6
2018-08-31T12:09:58.836Z,19
2018-08-31T12:14:58.894Z,19
2018-08-31T12:19:58.856Z,19.3
2018-08-31T12:24:58.989Z,19.2
2018-08-31T12:29:58.733Z,19.2
2018-08-31T12:34:58.741Z,18.8
2018-08-31T12:39:58.785Z,19.2
2018-08-31T12:44:58.961Z,18.9
2018-08-31T12:49:58.960Z,18.7
2018-08-31T12:54:58.968Z,18.8
2018-08-31T12:59:58.949Z,19.3
2018-08-31T13:04:58.941Z,19.1
2018-08-31T13:09:58.824Z,19.1
2018-08-31T13:14:58.967Z,19.5
2018-08-31T13:19:58.941Z,19.4
2018-08-31T13:24:58.830Z,19.8
2018-08-31T13:29:58.869Z,19.4
2018-08-31T13:34:58.986Z,20
2018-08-31T13:39:58.646Z,19.8
2018-08-31T13:44:58.934Z,19.3
2018-08-31T13:49:58.895Z,19.5
2018-08-31T13:54:58.714Z,19.7
2018-08-31T13:59:58.583Z,19.9
2018-08-31T14:04:58.605Z,19.4
2018-08-31T14:09:58.783Z,19.7
2018-08-31T14:14:58.737Z,19.9
2018-08-31T14:19:58.718Z,20.4
2018-08-31T14:24:58.828Z,20
2018-08-31T14:29:58.855Z,19.3
2018-08-31T14:34:58.785Z,20
2018-08-31T14:39:58.693Z,20
2018-08-31T14:44:58.871Z,20.1
2018-08-31T14:49:58.939Z,19.8
2018-08-31T14:54:58.528Z,19.5
2018-08-31T14:59:58.798Z,19.9
2018-08-31T15:04:58.797Z,20
2018-08-31T15:09:58.779Z,20.4
2018-08-31T15:14:58.534Z,20.7
2018-08-31T15:19:58.444Z,20.7
2018-08-31T15:24:58.472Z,22.3
2018-08-31T15:29:58.579Z,22.4
2018-08-31T15:34:58.584Z,21.9
2018-08-31T15:39:58.590Z,21.2
2018-08-31T15:44:58.674Z,21.4
2018-08-31T15:49:58.448Z,21.3
2018-08-31T15:54:58.594Z,20.4
2018-08-31T15:59:58.550Z,19.8
2018-08-31T16:04:58.810Z,19.6
2018-08-31T16:09:58.651Z,19.7
2018-08-31T16:14:58.468Z,20
2018-08-31T16:19:58.673Z,19.3
2018-08-31T16:24:58.991Z,19.9
2018-08-31T16:29:58.453Z,20
2018-08-31T16:34:58.440Z,19.4
2018-08-31T16:39:58.693Z,19.5
2018-08-31T16:44:58.458Z,19.2
2018-08-31T16:49:58.387Z,19.7
2018-08-31T16:54:58.364Z,19.5
2018-08-31T16:59:58.361Z,19.6
2018-08-31T17:04:58.618Z,19.4
2018-08-31T17:09:58.372Z,19.7
2018-08-31T17:14:58.392Z,19.3
2018-08-31T17:19:58.473Z,19.1
2018-08-31T17:24:58.320Z,19.4
2018-08-31T17:29:58.566Z,19.1
2018-08-31T17:34:58.282Z,18.8
2018-08-31T17:39:58.479Z,18.8
2018-08-31T17:44:58.375Z,18.7
2018-08-31T17:49:58.263Z,18.4
2018-08-31T17:54:58.540Z,18.9
2018-08-31T17:59:58.389Z,18.5
2018-08-31T18:04:58.688Z,18
2018-08-31T18:09:58.472Z,18.2
2018-08-31T18:14:58.187Z,18.2
2018-08-31T18:19:58.350Z,18.2
2018-08-31T18:24:58.619Z,18.4
2018-08-31T18:29:58.433Z,18
2018-08-31T18:34:58.427Z,17.9
2018-08-31T18:39:58.330Z,17.8
2018-08-31T18:44:58.514Z,17.7
2018-08-31T18:49:58.454Z,17.4
2018-08-31T18:54:58.155Z,17.4
2018-08-31T18:59:58.232Z,17.6
2018-08-31T19:04:58.428Z,17.2
2018-08-31T19:09:58.330Z,17
2018-08-31T19:14:58.330Z,17
2018-08-31T19:19:58.178Z,16.9
2018-08-31T19:24:58.427Z,16.7
2018-08-31T19:29:58.215Z,17.2
2018-08-31T19:34:58.145Z,16.5
2018-08-31T19:39:58.273Z,16.4
2018-08-31T19:44:58.296Z,16.3
2018-08-31T19:49:58.371Z,16.4
2018-08-31T19:54:58.385Z,16.1
2018-08-31T19:59:58.399Z,16.1
2018-08-31T20:04:58.199Z,16.1
2018-08-31T20:09:58.274Z,16
2018-08-31T20:14:58.367Z,15.7
2018-08-31T20:19:58.216Z,15.8
2018-08-31T20:24:58.233Z,15.7
2018-08-31T20:29:58.150Z,15.6
2018-08-31T20:34:58.217Z,15.4
2018-08-31T20:39:58.943Z,15.5
2018-08-31T20:44:58.519Z,15.5
2018-08-31T20:49:58.469Z,15.4
2018-08-31T20:58:07.176Z,15.2
2018-08-31T20:59:57.984Z,15.2
2018-08-31T21:10:09.816Z,15.1
2018-08-31T21:15:02.875Z,15
2018-08-31T21:20:03.105Z,15
2018-08-31T21:25:03.274Z,14.9
2018-08-31T21:30:07.098Z,14.9
2018-08-31T21:35:03.148Z,14.8
2018-08-31T21:40:03.029Z,14.7
2018-08-31T21:45:05.278Z,14.6
2018-08-31T21:50:03.434Z,14.6
2018-08-31T21:55:03.135Z,14.6
2018-08-31T22:00:03.077Z,14.5
2018-08-31T22:05:02.949Z,14.4
2018-08-31T22:10:03.003Z,14.5
2018-08-31T22:15:02.879Z,14.4
2018-08-31T22:20:02.878Z,14.3
2018-08-31T22:25:02.731Z,14.4
2018-08-31T22:30:02.834Z,14.3
2018-08-31T22:35:03.065Z,14.3
2018-08-31T22:40:02.916Z,14.2
2018-08-31T22:45:03.201Z,14.2
2018-08-31T22:50:03.000Z,14.1
2018-08-31T22:55:02.710Z,14.1
2018-08-31T23:00:03.154Z,14.5
2018-08-31T23:05:02.777Z,14.7
2018-08-31T23:10:02.911Z,14.5
2018-08-31T23:15:02.885Z,14.3
2018-08-31T23:20:03.110Z,14.4
2018-08-31T23:25:02.848Z,14.1
2018-08-31T23:30:03.009Z,14.3
2018-08-31T23:35:02.737Z,14.2
2018-08-31T23:40:02.882Z,13.9
2018-08-31T23:45:02.867Z,14.1
2018-08-31T23:50:02.807Z,14.2
2018-08-31T23:55:02.834Z,14.4
